createdAt,value
2023-02-09T00:02:22.018Z,115.65
2023-02-09T00:07:26.421Z,116.38
2023-02-09T00:12:48.206Z,113.75
2023-02-09T00:17:53.991Z,107.63
2023-02-09T00:22:58.371Z,121.10
2023-02-09T00:38:14.594Z,105.07
2023-02-09T00:43:19.757Z,110.22
2023-02-09T00:48:25.659Z,122.40
2023-02-09T00:53:30.413Z,126.00
2023-02-09T00:58:35.057Z,130.55
2023-02-09T01:03:41.607Z,151.73
2023-02-09T01:08:46.076Z,143.25
2023-02-09T01:13:52.120Z,142.77
2023-02-09T01:19:00.353Z,127.82
2023-02-09T01:24:07.225Z,126.70
2023-02-09T01:29:15.033Z,114.63
2023-02-09T01:34:20.848Z,112.68
2023-02-09T01:39:26.025Z,114.57
2023-02-09T01:45:20.441Z,129.13
2023-02-09T01:50:30.456Z,128.60
2023-02-09T01:55:41.233Z,124.90
2023-02-09T02:00:46.868Z,122.95
2023-02-09T02:05:58.231Z,121.40
2023-02-09T02:11:03.968Z,118.30
2023-02-09T02:16:21.006Z,126.70
2023-02-09T02:22:12.973Z,116.70
2023-02-09T02:27:31.710Z,122.13
2023-02-09T02:32:54.013Z,120.07
2023-02-09T02:38:06.399Z,127.28
2023-02-09T02:43:23.731Z,109.78
2023-02-09T02:48:38.722Z,111.85
2023-02-09T02:53:48.847Z,119.68
2023-02-09T02:58:57.266Z,113.85
2023-02-09T03:04:06.509Z,114.57
2023-02-09T03:09:11.356Z,119.20
2023-02-09T03:14:42.624Z,118.45
2023-02-09T03:19:53.384Z,124.10
2023-02-09T03:25:06.199Z,120.68
2023-02-09T03:30:15.842Z,121.63
2023-02-09T03:35:22.171Z,115.38
2023-02-09T03:40:26.499Z,120.15
2023-02-09T03:45:31.161Z,104.13
2023-02-09T03:50:38.534Z,113.82
2023-02-09T03:55:43.638Z,115.38
2023-02-09T04:00:48.414Z,124.82
2023-02-09T04:05:54.405Z,111.82
2023-02-09T04:10:59.015Z,106.03
2023-02-09T04:16:03.397Z,106.78
2023-02-09T04:21:09.154Z,113.43
2023-02-09T04:26:13.630Z,107.72
2023-02-09T04:31:18.129Z,112.50
2023-02-09T04:36:24.165Z,104.28
2023-02-09T04:41:28.425Z,108.15
2023-02-09T04:46:32.591Z,113.00
2023-02-09T04:51:38.716Z,113.70
2023-02-09T04:56:43.205Z,105.05
2023-02-09T05:01:47.644Z,113.00
2023-02-09T05:06:53.434Z,104.40
2023-02-09T05:11:57.842Z,111.40
2023-02-09T05:17:02.444Z,123.47
2023-02-09T05:22:08.314Z,120.35
2023-02-09T05:27:12.732Z,107.38
2023-02-09T05:32:17.327Z,122.65
2023-02-09T05:37:23.290Z,113.57
2023-02-09T05:42:28.232Z,118.38
2023-02-09T05:47:32.625Z,129.15
2023-02-09T05:52:38.756Z,131.63
2023-02-09T05:57:43.285Z,119.13
2023-02-09T06:02:47.845Z,129.80
2023-02-09T06:07:53.631Z,120.07
2023-02-09T06:12:58.215Z,127.63
2023-02-09T06:18:02.347Z,126.45
2023-02-09T06:23:08.054Z,115.80
2023-02-09T06:28:12.536Z,113.40
2023-02-09T06:33:16.778Z,114.78
2023-02-09T06:38:22.522Z,116.18
2023-02-09T06:43:27.635Z,124.97
2023-02-09T06:48:32.234Z,128.65
2023-02-09T06:53:39.203Z,132.98
2023-02-09T06:58:44.242Z,135.80
2023-02-09T07:03:48.596Z,131.73
2023-02-09T07:08:54.382Z,130.68
2023-02-09T07:13:58.776Z,120.30
2023-02-09T07:19:03.652Z,125.68
2023-02-09T07:24:09.702Z,111.90
2023-02-09T07:29:14.314Z,124.28
2023-02-09T07:34:18.689Z,111.88
2023-02-09T07:39:24.890Z,107.47
2023-02-09T07:44:29.304Z,106.30
2023-02-09T07:49:36.188Z,103.68
2023-02-09T07:54:42.309Z,85.30
2023-02-09T07:59:46.695Z,91.90
2023-02-09T08:04:51.683Z,79.25
2023-02-09T08:09:57.622Z,74.10
2023-02-09T08:15:02.688Z,73.70
2023-02-09T08:20:12.996Z,64.15
2023-02-09T08:25:23.939Z,60.28
2023-02-09T08:30:28.323Z,60.53
2023-02-09T08:35:32.839Z,56.90
2023-02-09T08:40:41.432Z,45.53
2023-02-09T08:45:46.235Z,54.05
2023-02-09T08:50:50.688Z,49.20
2023-02-09T08:55:56.974Z,43.40
2023-02-09T09:01:01.662Z,44.17
2023-02-09T09:06:09.260Z,41.25
2023-02-09T09:11:15.078Z,52.00
2023-02-09T09:16:21.758Z,40.15
2023-02-09T09:21:26.520Z,43.30
2023-02-09T09:26:34.094Z,36.05
2023-02-09T09:31:38.689Z,32.47
2023-02-09T09:36:43.066Z,34.25
2023-02-09T09:47:01.285Z,30.13
2023-02-09T09:52:10.394Z,32.47
2023-02-09T09:57:21.904Z,36.58
2023-02-09T10:02:31.090Z,29.42
2023-02-09T10:07:36.227Z,35.50
2023-02-09T10:12:49.780Z,33.42
2023-02-09T10:17:54.151Z,33.22
2023-02-09T10:23:01.385Z,29.23
2023-02-09T10:28:07.500Z,36.05
2023-02-09T10:33:16.784Z,30.20
2023-02-09T10:38:25.244Z,31.30
2023-02-09T10:43:34.876Z,33.50
2023-02-09T10:48:43.611Z,32.92
2023-02-09T10:54:04.572Z,34.15
2023-02-09T10:59:20.952Z,29.13
2023-02-09T11:04:28.451Z,28.13
2023-02-09T11:09:36.337Z,29.25
2023-02-09T11:14:43.408Z,25.95
2023-02-09T11:20:24.815Z,26.95
2023-02-09T11:25:34.149Z,31.95
2023-02-09T11:31:00.981Z,29.52
2023-02-09T11:36:28.137Z,27.42
2023-02-09T11:41:56.544Z,20.95
2023-02-09T11:47:07.546Z,25.92
2023-02-09T11:52:19.487Z,23.98
2023-02-09T11:57:34.715Z,20.30
2023-02-09T12:02:52.118Z,27.27
2023-02-09T12:08:27.310Z,29.55
2023-02-09T12:13:50.199Z,26.33
2023-02-09T12:18:57.076Z,23.40
2023-02-09T12:24:03.011Z,26.77
2023-02-09T12:29:35.264Z,22.85
2023-02-09T12:34:43.196Z,19.33
2023-02-09T12:40:22.708Z,18.48
2023-02-09T12:45:37.345Z,25.38
2023-02-09T12:50:54.301Z,24.30
2023-02-09T12:56:04.807Z,19.23
2023-02-09T13:01:09.260Z,22.63
2023-02-09T13:06:30.850Z,19.35
2023-02-09T13:11:49.281Z,22.42
2023-02-09T13:17:29.497Z,18.80
2023-02-09T13:23:02.451Z,20.33
2023-02-09T13:28:16.884Z,19.25
2023-02-09T13:33:41.547Z,18.13
2023-02-09T13:38:48.196Z,19.38
2023-02-09T13:43:52.721Z,21.77
2023-02-09T13:49:10.752Z,24.52
2023-02-09T13:54:21.648Z,14.75
2023-02-09T13:59:25.910Z,24.30
2023-02-09T14:04:35.180Z,18.30
2023-02-09T14:09:48.075Z,17.42
2023-02-09T14:15:15.774Z,21.27
2023-02-09T14:20:25.149Z,15.05
2023-02-09T14:25:32.545Z,19.85
2023-02-09T14:30:39.678Z,19.40
2023-02-09T14:35:44.542Z,16.42
2023-02-09T14:46:01.558Z,20.40
2023-02-09T14:51:14.213Z,20.40
2023-02-09T14:56:28.755Z,21.60
2023-02-09T15:01:33.735Z,22.58
2023-02-09T15:06:39.280Z,22.05
2023-02-09T15:12:03.616Z,19.35
2023-02-09T15:17:20.244Z,23.20
2023-02-09T15:22:25.834Z,22.35
2023-02-09T15:27:36.231Z,24.23
2023-02-09T15:32:40.832Z,21.73
2023-02-09T15:37:49.943Z,23.90
2023-02-09T15:43:13.245Z,23.27
2023-02-09T15:48:17.536Z,24.77
2023-02-09T15:53:22.210Z,31.17
2023-02-09T15:58:35.270Z,28.23
2023-02-09T16:03:40.260Z,35.15
2023-02-09T16:08:47.363Z,42.72
2023-02-09T16:13:55.341Z,53.78
2023-02-09T16:18:59.915Z,50.72
2023-02-09T16:24:08.605Z,47.63
2023-02-09T16:29:16.120Z,38.80
2023-02-09T16:34:20.474Z,53.67
2023-02-09T16:44:33.310Z,52.20
2023-02-09T16:49:41.310Z,45.97
2023-02-09T16:54:49.375Z,47.53
2023-02-09T16:59:55.662Z,49.78
2023-02-09T17:05:01.733Z,45.60
2023-02-09T17:10:17.110Z,44.05
2023-02-09T17:15:32.281Z,44.35
2023-02-09T17:20:42.063Z,46.97
2023-02-09T17:25:48.312Z,47.63
2023-02-09T17:30:58.162Z,47.97
2023-02-09T17:36:25.813Z,44.30
2023-02-09T17:41:34.503Z,47.38
2023-02-09T17:46:40.411Z,41.10
2023-02-09T17:51:46.175Z,44.90
2023-02-09T17:56:50.327Z,36.63
2023-02-09T18:01:56.276Z,43.33
2023-02-09T18:07:02.296Z,32.30
2023-02-09T18:12:16.300Z,33.85
2023-02-09T18:17:22.108Z,38.13
2023-02-09T18:22:27.510Z,38.30
2023-02-09T18:27:31.976Z,42.35
2023-02-09T18:32:37.633Z,31.73
2023-02-09T18:37:42.289Z,38.38
2023-02-09T18:47:53.481Z,33.17
2023-02-09T18:53:00.569Z,27.35
2023-02-09T18:58:09.410Z,27.88
2023-02-09T19:03:17.703Z,27.17
2023-02-09T19:08:21.875Z,25.08
2023-02-09T19:13:26.301Z,25.80
2023-02-09T19:18:34.678Z,29.13
2023-02-09T19:23:39.073Z,29.20
2023-02-09T19:28:43.455Z,31.13
2023-02-09T19:33:49.184Z,31.00
2023-02-09T19:38:53.656Z,29.38
2023-02-09T19:43:59.487Z,28.65
2023-02-09T19:49:05.630Z,30.45
2023-02-09T19:54:09.789Z,27.38
2023-02-09T20:04:21.900Z,31.77
2023-02-09T20:09:26.084Z,30.30
2023-02-09T20:14:31.752Z,28.63
2023-02-09T20:19:39.333Z,29.05
2023-02-09T20:24:44.441Z,30.17
2023-02-09T20:29:49.010Z,30.20
2023-02-09T20:34:55.093Z,27.30
2023-02-09T20:40:01.497Z,30.17
2023-02-09T20:45:25.376Z,29.30
2023-02-09T20:50:33.662Z,27.40
2023-02-09T20:55:38.337Z,29.02
2023-02-09T21:00:43.732Z,26.55
2023-02-09T21:05:49.523Z,28.15
2023-02-09T21:10:57.093Z,26.50
2023-02-09T21:16:03.893Z,27.15
2023-02-09T21:21:14.257Z,33.42
2023-02-09T21:26:22.616Z,32.00
2023-02-09T21:31:28.978Z,28.75
2023-02-09T21:36:34.792Z,27.50
2023-02-09T21:41:56.799Z,22.33
2023-02-09T21:47:01.794Z,31.27
2023-02-09T21:52:07.712Z,31.42
2023-02-09T21:57:12.339Z,26.73
2023-02-09T22:02:19.505Z,33.42
2023-02-09T22:07:25.328Z,31.10
2023-02-09T22:12:29.805Z,29.20
2023-02-09T22:22:44.136Z,30.38
2023-02-09T22:27:48.384Z,36.38
2023-02-09T22:37:58.130Z,33.80
2023-02-09T22:43:02.270Z,32.08
2023-02-09T22:48:06.933Z,24.90
2023-02-09T22:53:12.630Z,26.50
2023-02-09T22:58:17.113Z,28.35
2023-02-09T23:03:21.622Z,33.50
2023-02-09T23:13:33.077Z,25.10
2023-02-09T23:18:37.748Z,26.52
2023-02-09T23:23:44.295Z,26.33
2023-02-09T23:28:49.381Z,28.48
2023-02-09T23:33:53.788Z,26.52
2023-02-09T23:39:02.140Z,27.80
2023-02-09T23:44:06.616Z,29.23
2023-02-09T23:54:16.774Z,28.65
2023-02-09T23:59:20.931Z,33.13
